createdAt,value
2022-12-03T00:00:46.936Z,-0.75
2022-12-03T00:05:48.935Z,-0.62
2022-12-03T00:10:46.958Z,-0.75
2022-12-03T00:15:46.979Z,-0.81
2022-12-03T00:20:46.929Z,-1
2022-12-03T00:25:46.935Z,-1
2022-12-03T00:30:46.995Z,-0.93
2022-12-03T00:35:46.934Z,-0.93
2022-12-03T00:40:46.979Z,-0.87
2022-12-03T00:45:46.962Z,-0.68
2022-12-03T00:50:46.947Z,-0.68
2022-12-03T00:55:47.049Z,-0.75
2022-12-03T01:00:46.957Z,-0.81
2022-12-03T01:05:46.959Z,-0.81
2022-12-03T01:10:46.919Z,-0.68
2022-12-03T01:15:46.995Z,-0.75
2022-12-03T01:20:46.936Z,-0.68
2022-12-03T01:25:46.922Z,-0.62
2022-12-03T01:30:46.943Z,-0.68
2022-12-03T01:35:46.965Z,-0.75
2022-12-03T01:40:46.922Z,-0.81
2022-12-03T01:45:46.898Z,-0.81
2022-12-03T01:50:46.899Z,-0.81
2022-12-03T01:55:48.718Z,-0.93
2022-12-03T02:00:46.907Z,-0.93
2022-12-03T02:05:46.893Z,-1.06
2022-12-03T02:10:46.885Z,-1
2022-12-03T02:15:46.938Z,-1
2022-12-03T02:20:46.895Z,-1.06
2022-12-03T02:25:46.888Z,-0.87
2022-12-03T02:30:46.894Z,-1
2022-12-03T02:35:46.889Z,-0.87
2022-12-03T02:40:46.898Z,-0.87
2022-12-03T02:45:46.897Z,-0.93
2022-12-03T02:50:46.870Z,-0.81
2022-12-03T02:55:46.885Z,-0.75
2022-12-03T03:00:46.941Z,-0.87
2022-12-03T03:05:46.873Z,-0.87
2022-12-03T03:10:46.880Z,-0.87
2022-12-03T03:15:46.878Z,-0.75
2022-12-03T03:20:46.881Z,-0.81
2022-12-03T03:25:46.868Z,-0.81
2022-12-03T03:30:46.869Z,-0.75
2022-12-03T03:35:46.858Z,-0.68
2022-12-03T03:40:46.864Z,-0.75
2022-12-03T03:55:46.859Z,-0.75
2022-12-03T04:00:46.901Z,-0.75
2022-12-03T04:05:46.862Z,-0.81
2022-12-03T04:10:46.851Z,-0.68
2022-12-03T04:20:46.852Z,-0.68
2022-12-03T04:35:46.973Z,-0.62
2022-12-03T04:40:46.844Z,-0.75
2022-12-03T04:45:46.866Z,-0.68
2022-12-03T05:25:46.827Z,-0.87
2022-12-03T05:30:46.966Z,-0.81
2022-12-03T05:35:46.817Z,-0.87
2022-12-03T05:40:46.836Z,-0.81
2022-12-03T05:45:46.955Z,-0.81
2022-12-03T05:50:46.823Z,-0.87
2022-12-03T05:55:46.802Z,-0.81
2022-12-03T06:00:46.834Z,-0.81
2022-12-03T06:05:46.830Z,-0.75
2022-12-03T06:10:46.831Z,-0.75
2022-12-03T06:15:46.849Z,-0.68
2022-12-03T06:20:46.838Z,-0.68
2022-12-03T06:25:46.799Z,-0.75
2022-12-03T06:30:46.846Z,-0.68
2022-12-03T06:35:46.812Z,-0.56
2022-12-03T06:40:46.796Z,-0.62
2022-12-03T06:45:47.936Z,-0.62
2022-12-03T06:50:46.812Z,-0.62
2022-12-03T06:55:46.794Z,-0.56
2022-12-03T07:00:46.809Z,-0.56
2022-12-03T07:05:46.795Z,-0.56
2022-12-03T07:10:46.808Z,-0.37
2022-12-03T07:15:46.840Z,-0.5
2022-12-03T07:20:46.796Z,-0.56
2022-12-03T07:25:46.783Z,-0.56
2022-12-03T07:30:46.791Z,-0.31
2022-12-03T07:35:46.802Z,-0.31
2022-12-03T07:40:46.791Z,-0.37
2022-12-03T07:45:46.767Z,-0.37
2022-12-03T07:50:46.782Z,-0.37
2022-12-03T07:55:46.765Z,-0.25
2022-12-03T08:00:46.848Z,-0.31
2022-12-03T08:05:46.792Z,-0.37
2022-12-03T08:10:46.773Z,-0.37
2022-12-03T08:15:46.758Z,-0.37
2022-12-03T08:20:46.777Z,-0.37
2022-12-03T08:25:46.762Z,-0.37
2022-12-03T08:30:46.755Z,-0.31
2022-12-03T08:35:46.857Z,-0.18
2022-12-03T08:40:46.755Z,-0.25
2022-12-03T08:45:46.787Z,-0.37
2022-12-03T08:50:46.749Z,-0.31
2022-12-03T08:55:46.743Z,-0.31
2022-12-03T09:00:46.783Z,-0.18
2022-12-03T09:05:46.755Z,-0.18
2022-12-03T09:10:46.756Z,-0.25
2022-12-03T09:15:46.740Z,-0.25
2022-12-03T09:20:46.743Z,-0.18
2022-12-03T09:25:46.742Z,-0.12
2022-12-03T09:30:46.743Z,-0.18
2022-12-03T09:35:46.740Z,-0.12
2022-12-03T09:40:46.742Z,-0.06
2022-12-03T09:45:46.884Z,-0.06
2022-12-03T09:50:46.733Z,-0.25
2022-12-03T09:55:46.737Z,-0.12
2022-12-03T10:00:46.727Z,-0.25
2022-12-03T10:05:48.273Z,-0.12
2022-12-03T10:10:46.734Z,-0.18
2022-12-03T10:15:46.712Z,-0.12
2022-12-03T10:20:46.712Z,-0.06
2022-12-03T10:25:46.708Z,-0.06
2022-12-03T10:30:46.766Z,-0.06
2022-12-03T10:35:46.727Z,-0.12
2022-12-03T10:40:46.706Z,0
2022-12-03T10:45:46.813Z,-0.06
2022-12-03T10:50:46.718Z,-0.06
2022-12-03T10:55:46.687Z,-0.06
2022-12-03T11:00:46.704Z,0
2022-12-03T11:05:46.694Z,0
2022-12-03T11:10:46.732Z,0
2022-12-03T11:15:46.752Z,-0.06
2022-12-03T11:20:46.722Z,-0.12
2022-12-03T11:25:46.792Z,-0.06
2022-12-03T11:30:46.780Z,-0.06
2022-12-03T11:35:46.691Z,0
2022-12-03T11:40:46.673Z,-0.12
2022-12-03T11:45:46.675Z,-0.18
2022-12-03T11:50:46.677Z,-0.12
2022-12-03T11:55:46.673Z,-0.06
2022-12-03T12:00:46.677Z,-0.12
2022-12-03T12:05:46.687Z,-0.06
2022-12-03T12:10:46.675Z,-0.18
2022-12-03T12:15:46.697Z,-0.12
2022-12-03T12:20:46.668Z,-0.06
2022-12-03T12:25:50.943Z,-0.18
2022-12-03T12:30:46.673Z,-0.18
2022-12-03T12:35:46.670Z,-0.12
2022-12-03T12:40:46.652Z,-0.12
2022-12-03T12:45:46.645Z,-0.18
2022-12-03T12:50:46.668Z,-0.12
2022-12-03T12:55:46.640Z,-0.12
2022-12-03T13:00:46.737Z,-0.12
2022-12-03T13:05:46.656Z,-0.06
2022-12-03T13:10:46.627Z,-0.25
2022-12-03T13:15:46.639Z,-0.18
2022-12-03T13:20:46.646Z,-0.12
2022-12-03T13:26:13.094Z,-0.06
2022-12-03T13:30:46.643Z,-0.37
2022-12-03T13:35:46.638Z,-0.5
2022-12-03T13:40:46.628Z,-0.5
2022-12-03T13:45:46.735Z,-0.37
2022-12-03T13:50:46.636Z,-0.37
2022-12-03T13:55:46.637Z,-0.25
2022-12-03T14:00:46.683Z,-0.56
2022-12-03T14:05:46.627Z,-0.43
2022-12-03T14:10:46.628Z,-0.56
2022-12-03T14:15:46.618Z,-0.5
2022-12-03T14:20:46.621Z,-0.56
2022-12-03T14:25:46.617Z,-0.43
2022-12-03T14:30:46.618Z,-0.68
2022-12-03T14:35:46.606Z,-0.81
2022-12-03T14:40:46.607Z,-0.87
2022-12-03T14:45:46.696Z,-0.81
2022-12-03T14:50:46.605Z,-0.75
2022-12-03T14:55:46.610Z,-0.87
2022-12-03T15:00:46.600Z,-0.93
2022-12-03T15:05:46.603Z,-0.87
2022-12-03T15:10:46.594Z,-0.81
2022-12-03T15:15:46.605Z,-0.87
2022-12-03T15:20:46.600Z,-0.93
2022-12-03T15:25:46.590Z,-0.68
2022-12-03T15:30:46.590Z,-0.62
2022-12-03T15:35:46.601Z,-0.68
2022-12-03T15:40:46.595Z,-0.87
2022-12-03T15:45:46.630Z,-0.87
2022-12-03T15:50:46.595Z,-0.81
2022-12-03T15:55:46.579Z,-0.87
2022-12-03T16:00:46.572Z,-0.81
2022-12-03T16:05:46.590Z,-0.87
2022-12-03T16:10:46.572Z,-0.75
2022-12-03T16:15:46.815Z,-0.81
2022-12-03T16:20:46.579Z,-0.81
2022-12-03T16:25:46.558Z,-0.81
2022-12-03T16:30:46.690Z,-0.87
2022-12-03T16:35:46.582Z,-0.87
2022-12-03T16:40:46.659Z,-0.81
2022-12-03T16:45:46.590Z,-0.87
2022-12-03T16:50:46.557Z,-0.75
2022-12-03T16:55:46.552Z,-0.81
2022-12-03T17:00:46.564Z,-0.81
2022-12-03T17:05:46.553Z,-0.87
2022-12-03T17:10:46.622Z,-0.81
2022-12-03T17:15:46.594Z,-0.75
2022-12-03T17:20:46.554Z,-0.87
2022-12-03T17:25:46.553Z,-0.75
2022-12-03T17:30:46.632Z,-0.75
2022-12-03T17:35:46.560Z,-0.68
2022-12-03T17:40:46.542Z,-0.62
2022-12-03T17:45:46.568Z,-0.68
2022-12-03T17:50:46.557Z,-0.68
2022-12-03T17:55:46.532Z,-0.68
2022-12-03T18:00:46.538Z,-0.62
2022-12-03T18:05:46.548Z,-0.62
2022-12-03T18:10:46.534Z,-0.62
2022-12-03T18:15:46.547Z,-0.68
2022-12-03T18:20:46.531Z,-0.62
2022-12-03T18:25:46.527Z,-0.68
2022-12-03T18:30:52.131Z,-0.68
2022-12-03T18:35:46.523Z,-0.68
2022-12-03T18:40:46.512Z,-0.62
2022-12-03T18:45:46.521Z,-0.62
2022-12-03T18:50:46.514Z,-0.68
2022-12-03T18:55:46.516Z,-0.62
2022-12-03T19:05:46.521Z,-0.68
2022-12-03T19:10:46.517Z,-0.68
2022-12-03T19:20:46.504Z,-0.5
2022-12-03T19:30:46.500Z,-0.56
2022-12-03T19:35:46.490Z,-0.56
2022-12-03T19:40:46.507Z,-0.56
2022-12-03T19:55:46.519Z,-0.56
2022-12-03T20:05:46.495Z,-0.62
2022-12-03T20:10:46.509Z,-0.43
2022-12-03T20:15:46.507Z,-0.5
2022-12-03T20:20:46.489Z,-0.56
2022-12-03T20:25:46.498Z,-0.5
2022-12-03T20:30:46.534Z,-0.5
2022-12-03T20:35:46.509Z,-0.56
2022-12-03T20:40:46.488Z,-0.56
2022-12-03T20:45:46.555Z,-0.56
2022-12-03T20:50:46.484Z,-0.62
2022-12-03T20:55:46.487Z,-0.56
2022-12-03T21:00:46.489Z,-0.68
2022-12-03T21:05:46.479Z,-0.5
2022-12-03T21:10:46.478Z,-0.68
2022-12-03T21:15:46.482Z,-0.37
2022-12-03T21:20:46.483Z,-0.56
2022-12-03T21:25:46.472Z,-0.5
2022-12-03T21:30:46.522Z,-0.62
2022-12-03T21:35:46.474Z,-0.43
2022-12-03T21:40:46.484Z,-0.5
2022-12-03T21:45:46.542Z,-0.68
2022-12-03T21:55:46.462Z,-0.62
2022-12-03T22:00:46.471Z,-0.37
2022-12-03T22:05:46.464Z,-0.5
2022-12-03T22:10:46.463Z,-0.5
2022-12-03T22:15:46.551Z,-0.56
2022-12-03T22:20:46.462Z,-0.5
2022-12-03T22:25:46.476Z,-0.5
2022-12-03T22:30:46.513Z,-0.62
2022-12-03T22:35:46.448Z,-0.68
2022-12-03T22:40:46.460Z,-0.62
2022-12-03T22:45:46.434Z,-0.43
2022-12-03T22:50:46.430Z,-0.5
2022-12-03T22:55:46.484Z,-0.5
2022-12-03T23:11:46.022Z,-0.5
2022-12-03T23:15:46.508Z,-0.56
2022-12-03T23:20:46.435Z,-0.56
2022-12-03T23:25:46.429Z,-0.37
2022-12-03T23:30:46.514Z,-0.25
2022-12-03T23:35:46.435Z,-0.37
2022-12-03T23:40:48.177Z,-0.43
2022-12-03T23:45:46.422Z,-0.37
2022-12-03T23:50:46.418Z,-0.37
2022-12-03T23:55:46.423Z,-0.37
